createdAt,value
2023-05-20T00:02:07.993Z,1.03
2023-05-20T00:04:35.892Z,1.20
2023-05-20T00:07:03.866Z,1.20
2023-05-20T00:09:33.572Z,0.90
2023-05-20T00:12:02.157Z,1.50
2023-05-20T00:14:31.289Z,1.13
2023-05-20T00:17:00.192Z,1.23
2023-05-20T00:19:34.777Z,1.33
2023-05-20T00:22:03.662Z,1.20
2023-05-20T00:24:34.012Z,1.00
2023-05-20T00:27:04.370Z,1.37
2023-05-20T00:29:34.384Z,1.30
2023-05-20T00:32:03.011Z,1.10
2023-05-20T00:34:38.719Z,2.03
2023-05-20T00:37:14.681Z,1.33
2023-05-20T00:39:49.907Z,1.33
2023-05-20T00:42:27.147Z,1.73
2023-05-20T00:44:58.849Z,1.60
2023-05-20T00:47:36.872Z,1.30
2023-05-20T00:50:15.626Z,1.63
2023-05-20T00:52:48.868Z,1.17
2023-05-20T00:55:19.616Z,1.30
2023-05-20T00:57:54.582Z,1.50
2023-05-20T01:00:28.326Z,1.23
2023-05-20T01:03:00.936Z,1.10
2023-05-20T01:05:46.174Z,1.00
2023-05-20T01:08:39.048Z,1.40
2023-05-20T01:11:22.661Z,1.23
2023-05-20T01:13:58.252Z,1.17
2023-05-20T01:16:34.406Z,1.50
2023-05-20T01:19:08.097Z,1.40
2023-05-20T01:21:42.148Z,1.30
2023-05-20T01:24:18.078Z,0.93
2023-05-20T01:26:55.065Z,1.00
2023-05-20T01:29:26.771Z,1.20
2023-05-20T01:31:59.799Z,1.70
2023-05-20T01:34:31.336Z,1.17
2023-05-20T01:37:02.292Z,1.20
2023-05-20T01:39:33.467Z,1.43
2023-05-20T01:42:09.427Z,1.20
2023-05-20T01:44:42.485Z,1.50
2023-05-20T01:47:10.211Z,1.40
2023-05-20T01:49:37.872Z,1.53
2023-05-20T01:52:06.663Z,1.57
2023-05-20T01:54:36.864Z,1.57
2023-05-20T01:57:04.992Z,1.33
2023-05-20T01:59:33.077Z,1.40
2023-05-20T02:02:01.720Z,1.30
2023-05-20T02:04:29.640Z,1.83
2023-05-20T02:06:57.592Z,1.37
2023-05-20T02:09:29.391Z,1.37
2023-05-20T02:12:05.045Z,1.47
2023-05-20T02:14:38.446Z,2.00
2023-05-20T02:17:06.963Z,1.43
2023-05-20T02:19:37.439Z,2.10
2023-05-20T02:24:53.402Z,1.80
2023-05-20T02:27:23.199Z,2.00
2023-05-20T02:29:50.862Z,1.70
2023-05-20T02:32:20.718Z,1.90
2023-05-20T02:34:48.728Z,1.40
2023-05-20T02:37:16.643Z,1.87
2023-05-20T02:39:44.689Z,1.70
2023-05-20T02:42:15.956Z,1.20
2023-05-20T02:44:45.238Z,1.60
2023-05-20T02:47:14.989Z,1.70
2023-05-20T02:49:42.779Z,1.47
2023-05-20T02:52:10.948Z,1.50
2023-05-20T02:54:38.659Z,1.40
2023-05-20T02:57:06.923Z,1.37
2023-05-20T02:59:34.742Z,1.40
2023-05-20T03:02:04.744Z,1.50
2023-05-20T03:04:32.702Z,1.67
2023-05-20T03:07:01.036Z,1.83
2023-05-20T03:09:30.538Z,1.50
2023-05-20T03:11:58.423Z,1.50
2023-05-20T03:14:26.182Z,1.57
2023-05-20T03:16:55.522Z,1.80
2023-05-20T03:19:24.857Z,1.40
2023-05-20T03:21:52.707Z,1.53
2023-05-20T03:24:20.454Z,1.93
2023-05-20T03:26:48.322Z,1.23
2023-05-20T03:29:17.923Z,1.37
2023-05-20T03:31:46.482Z,1.53
2023-05-20T03:34:14.315Z,1.80
2023-05-20T03:36:44.204Z,1.33
2023-05-20T03:39:12.263Z,1.90
2023-05-20T03:41:41.122Z,1.63
2023-05-20T03:44:09.118Z,1.63
2023-05-20T03:46:37.087Z,1.40
2023-05-20T03:49:06.026Z,1.37
2023-05-20T03:51:33.982Z,3.10
2023-05-20T03:54:08.901Z,1.43
2023-05-20T03:56:37.556Z,1.47
2023-05-20T03:59:05.599Z,1.90
2023-05-20T04:01:33.922Z,1.53
2023-05-20T04:04:02.141Z,3.00
2023-05-20T04:06:31.603Z,1.50
2023-05-20T04:09:00.556Z,1.97
2023-05-20T04:11:29.834Z,1.57
2023-05-20T04:13:58.609Z,1.93
2023-05-20T04:16:26.478Z,1.70
2023-05-20T04:18:54.312Z,2.00
2023-05-20T04:21:22.733Z,1.83
2023-05-20T04:23:50.800Z,1.43
2023-05-20T04:26:19.109Z,1.90
2023-05-20T04:28:49.697Z,1.40
2023-05-20T04:31:18.843Z,2.00
2023-05-20T04:33:47.191Z,2.23
2023-05-20T04:36:17.535Z,1.67
2023-05-20T04:38:46.055Z,1.30
2023-05-20T04:41:16.015Z,1.57
2023-05-20T04:43:46.115Z,1.80
2023-05-20T04:46:15.386Z,1.80
2023-05-20T04:48:44.404Z,1.50
2023-05-20T04:51:14.121Z,1.57
2023-05-20T04:53:43.567Z,1.60
2023-05-20T04:56:13.533Z,1.63
2023-05-20T04:58:45.091Z,1.20
2023-05-20T05:01:15.447Z,1.83
2023-05-20T05:03:49.753Z,1.53
2023-05-20T05:06:23.076Z,1.80
2023-05-20T05:08:50.848Z,2.23
2023-05-20T05:11:18.917Z,1.73
2023-05-20T05:13:47.488Z,1.33
2023-05-20T05:16:15.341Z,1.23
2023-05-20T05:18:43.976Z,2.00
2023-05-20T05:21:14.897Z,1.97
2023-05-20T05:23:43.800Z,1.63
2023-05-20T05:26:12.616Z,1.60
2023-05-20T05:28:42.734Z,1.93
2023-05-20T05:31:10.644Z,1.73
2023-05-20T05:33:38.485Z,1.80
2023-05-20T05:36:06.773Z,1.70
2023-05-20T05:38:36.722Z,1.50
2023-05-20T05:41:04.792Z,1.37
2023-05-20T05:43:33.318Z,1.43
2023-05-20T05:46:01.204Z,1.70
2023-05-20T05:48:29.616Z,1.53
2023-05-20T05:50:57.525Z,1.30
2023-05-20T05:53:26.800Z,1.87
2023-05-20T05:55:56.155Z,1.83
2023-05-20T05:58:24.111Z,1.87
2023-05-20T06:00:54.924Z,1.67
2023-05-20T06:03:23.164Z,1.90
2023-05-20T06:05:51.330Z,1.67
2023-05-20T06:08:21.843Z,1.63
2023-05-20T06:10:50.220Z,2.03
2023-05-20T06:13:19.760Z,1.90
2023-05-20T06:15:51.034Z,1.97
2023-05-20T06:18:19.173Z,1.90
2023-05-20T06:20:47.640Z,1.30
2023-05-20T06:23:16.100Z,2.00
2023-05-20T06:25:54.718Z,2.10
2023-05-20T06:28:24.498Z,1.93
2023-05-20T06:30:54.755Z,2.10
2023-05-20T06:33:26.834Z,1.90
2023-05-20T06:35:57.276Z,1.83
2023-05-20T06:38:25.495Z,1.90
2023-05-20T06:40:53.605Z,1.67
2023-05-20T06:43:21.695Z,2.87
2023-05-20T06:46:07.361Z,3.93
2023-05-20T06:48:38.849Z,2.10
2023-05-20T06:51:08.799Z,2.10
2023-05-20T06:53:36.895Z,1.67
2023-05-20T06:56:05.372Z,2.03
2023-05-20T06:58:33.964Z,1.90
2023-05-20T07:01:01.875Z,1.83
2023-05-20T07:03:31.356Z,1.97
2023-05-20T07:05:59.639Z,1.67
2023-05-20T07:08:27.997Z,1.77
2023-05-20T07:10:57.143Z,2.50
2023-05-20T07:13:26.436Z,2.10
2023-05-20T07:15:54.539Z,2.00
2023-05-20T07:18:22.965Z,2.10
2023-05-20T07:20:58.018Z,2.40
2023-05-20T07:23:35.401Z,2.03
2023-05-20T07:26:03.382Z,1.80
2023-05-20T07:28:31.515Z,2.30
2023-05-20T07:31:00.419Z,1.63
2023-05-20T07:33:30.799Z,2.20
2023-05-20T07:36:01.173Z,2.60
2023-05-20T07:38:29.041Z,2.27
2023-05-20T07:41:02.516Z,2.00
2023-05-20T07:43:30.564Z,2.17
2023-05-20T07:45:59.854Z,2.50
2023-05-20T07:48:27.795Z,2.70
2023-05-20T07:50:57.303Z,2.17
2023-05-20T07:53:29.108Z,2.50
2023-05-20T07:55:57.453Z,2.20
2023-05-20T07:58:29.042Z,2.00
2023-05-20T08:00:57.697Z,2.30
2023-05-20T08:03:26.982Z,2.50
2023-05-20T08:06:06.280Z,2.30
2023-05-20T08:08:36.233Z,2.50
2023-05-20T08:11:10.644Z,1.73
2023-05-20T08:13:40.528Z,2.50
2023-05-20T08:16:09.383Z,2.23
2023-05-20T08:18:38.440Z,2.30
2023-05-20T08:21:08.682Z,1.70
2023-05-20T08:23:40.562Z,2.50
2023-05-20T08:26:11.814Z,2.37
2023-05-20T08:28:42.767Z,2.47
2023-05-20T08:31:10.808Z,1.77
2023-05-20T08:33:38.935Z,2.17
2023-05-20T08:36:08.340Z,2.50
2023-05-20T08:38:38.050Z,2.63
2023-05-20T08:41:05.976Z,2.37
2023-05-20T08:43:35.005Z,2.03
2023-05-20T08:46:06.475Z,2.10
2023-05-20T08:48:37.166Z,2.10
2023-05-20T08:51:05.527Z,2.17
2023-05-20T08:53:33.794Z,2.00
2023-05-20T08:56:03.996Z,2.10
2023-05-20T08:58:32.893Z,1.87
2023-05-20T09:01:01.658Z,2.00
2023-05-20T09:03:32.159Z,1.87
2023-05-20T09:06:06.056Z,2.03
2023-05-20T09:08:34.543Z,1.60
2023-05-20T09:11:04.342Z,1.60
2023-05-20T09:13:34.082Z,1.70
2023-05-20T09:16:02.675Z,1.63
2023-05-20T09:18:31.468Z,1.93
2023-05-20T09:20:59.507Z,2.00
2023-05-20T09:23:27.902Z,2.13
2023-05-20T09:25:55.825Z,1.50
2023-05-20T09:28:26.092Z,2.40
2023-05-20T09:31:03.654Z,1.90
2023-05-20T09:33:32.391Z,1.67
2023-05-20T09:36:05.448Z,1.60
2023-05-20T09:38:39.515Z,1.87
2023-05-20T09:41:09.454Z,1.93
2023-05-20T09:43:40.076Z,1.67
2023-05-20T09:46:08.878Z,1.90
2023-05-20T09:48:37.917Z,1.60
2023-05-20T09:51:06.955Z,1.60
2023-05-20T09:53:34.921Z,1.57
2023-05-20T09:56:02.836Z,1.90
2023-05-20T09:58:31.321Z,1.37
2023-05-20T10:01:01.305Z,1.63
2023-05-20T10:03:29.695Z,1.90
2023-05-20T10:06:10.005Z,1.80
2023-05-20T10:09:02.868Z,1.70
2023-05-20T10:11:48.495Z,2.27
2023-05-20T10:14:30.304Z,1.77
2023-05-20T10:17:08.857Z,1.87
2023-05-20T10:19:37.432Z,1.50
2023-05-20T10:22:07.156Z,2.00
2023-05-20T10:24:36.527Z,2.03
2023-05-20T10:27:06.705Z,1.67
2023-05-20T10:29:44.356Z,2.00
2023-05-20T10:32:24.427Z,2.00
2023-05-20T10:34:53.053Z,1.83
2023-05-20T10:37:28.703Z,1.80
2023-05-20T10:40:08.116Z,2.03
2023-05-20T10:42:36.004Z,1.50
2023-05-20T10:45:04.648Z,2.13
2023-05-20T10:47:33.867Z,1.80
2023-05-20T10:50:06.510Z,1.67
2023-05-20T10:52:34.807Z,1.87
2023-05-20T10:55:03.599Z,2.17
2023-05-20T10:57:44.122Z,2.17
2023-05-20T11:00:13.246Z,1.60
2023-05-20T11:02:43.158Z,1.70
2023-05-20T11:05:20.461Z,2.33
2023-05-20T11:07:48.286Z,1.60
2023-05-20T11:10:16.019Z,2.17
2023-05-20T11:12:43.838Z,2.00
2023-05-20T11:15:13.037Z,1.50
2023-05-20T11:17:53.347Z,2.03
2023-05-20T11:20:21.856Z,1.90
2023-05-20T11:22:51.294Z,1.83
2023-05-20T11:25:20.000Z,2.17
2023-05-20T11:27:48.187Z,2.30
2023-05-20T11:30:16.941Z,2.03
2023-05-20T11:32:46.508Z,1.70
2023-05-20T11:35:23.819Z,2.10
2023-05-20T11:37:56.283Z,2.13
2023-05-20T11:40:38.827Z,1.97
2023-05-20T11:43:07.289Z,1.87
2023-05-20T11:45:41.099Z,1.70
2023-05-20T11:48:11.454Z,2.17
2023-05-20T11:50:41.191Z,1.83
2023-05-20T11:53:10.583Z,1.77
2023-05-20T11:55:46.802Z,1.80
2023-05-20T11:58:17.468Z,2.73
2023-05-20T12:00:51.791Z,2.00
2023-05-20T12:03:26.367Z,1.83
2023-05-20T12:05:54.515Z,2.33
2023-05-20T12:08:22.698Z,2.40
2023-05-20T12:10:50.831Z,2.47
2023-05-20T12:13:19.568Z,2.43
2023-05-20T12:15:47.400Z,2.00
2023-05-20T12:18:15.637Z,2.07
2023-05-20T12:20:44.787Z,2.70
2023-05-20T12:23:12.522Z,1.77
2023-05-20T12:25:40.357Z,1.87
2023-05-20T12:28:08.595Z,2.10
2023-05-20T12:30:36.592Z,2.10
2023-05-20T12:33:04.607Z,2.80
2023-05-20T12:35:38.635Z,2.10
2023-05-20T12:38:08.267Z,2.37
2023-05-20T12:40:36.720Z,2.37
2023-05-20T12:43:05.468Z,1.97
2023-05-20T12:45:33.396Z,2.60
2023-05-20T12:48:01.360Z,2.20
2023-05-20T12:50:29.330Z,2.30
2023-05-20T12:52:57.381Z,2.10
2023-05-20T12:55:29.387Z,1.70
2023-05-20T12:57:57.265Z,1.60
2023-05-20T13:00:25.198Z,1.70
2023-05-20T13:02:53.145Z,1.90
2023-05-20T13:05:21.602Z,1.70
2023-05-20T13:07:50.049Z,2.07
2023-05-20T13:10:18.294Z,2.40
2023-05-20T13:12:47.478Z,2.03
2023-05-20T13:15:16.135Z,2.13
2023-05-20T13:17:46.465Z,2.20
2023-05-20T13:20:15.370Z,1.90
2023-05-20T13:22:44.656Z,2.00
2023-05-20T13:25:19.070Z,2.20
2023-05-20T13:27:48.548Z,1.97
2023-05-20T13:30:16.547Z,1.83
2023-05-20T13:32:44.440Z,1.83
2023-05-20T13:35:12.995Z,2.40
2023-05-20T13:37:40.947Z,2.20
2023-05-20T13:40:10.314Z,2.80
2023-05-20T13:42:38.466Z,1.90
2023-05-20T13:45:09.094Z,2.13
2023-05-20T13:47:36.972Z,2.10
2023-05-20T13:50:05.539Z,2.10
2023-05-20T13:52:34.999Z,1.93
2023-05-20T13:55:06.328Z,2.10
2023-05-20T13:57:34.268Z,1.83
2023-05-20T14:00:02.041Z,2.20
2023-05-20T14:02:37.943Z,2.40
2023-05-20T14:05:07.297Z,2.10
2023-05-20T14:07:35.401Z,1.90
2023-05-20T14:10:06.494Z,1.77
2023-05-20T14:12:34.657Z,2.33
2023-05-20T14:15:02.391Z,1.80
2023-05-20T14:17:30.246Z,1.97
2023-05-20T14:20:00.798Z,1.90
2023-05-20T14:22:28.617Z,2.40
2023-05-20T14:24:56.486Z,2.40
2023-05-20T14:27:24.204Z,2.10
2023-05-20T14:29:51.979Z,2.03
2023-05-20T14:32:19.769Z,2.07
2023-05-20T14:34:47.797Z,1.90
2023-05-20T14:37:16.830Z,2.50
2023-05-20T14:39:44.678Z,1.93
2023-05-20T14:42:12.631Z,2.17
2023-05-20T14:44:40.889Z,2.03
2023-05-20T14:47:10.308Z,2.10
2023-05-20T14:49:39.209Z,2.40
2023-05-20T14:52:07.645Z,2.10
2023-05-20T14:54:37.074Z,2.00
2023-05-20T14:57:06.634Z,2.20
2023-05-20T14:59:34.828Z,2.40
2023-05-20T15:02:02.703Z,2.23
2023-05-20T15:04:31.364Z,2.03
2023-05-20T15:06:59.130Z,2.80
2023-05-20T15:09:27.114Z,2.30
2023-05-20T15:11:56.477Z,2.63
2023-05-20T15:14:24.478Z,2.70
2023-05-20T15:16:52.308Z,2.37
2023-05-20T15:19:20.235Z,2.07
2023-05-20T15:21:49.585Z,2.60
2023-05-20T15:24:17.374Z,2.63
2023-05-20T15:26:45.396Z,2.20
2023-05-20T15:29:14.562Z,2.67
2023-05-20T15:31:42.546Z,2.00
2023-05-20T15:34:10.530Z,3.00
2023-05-20T15:36:38.443Z,2.03
2023-05-20T15:39:06.414Z,2.40
2023-05-20T15:41:34.573Z,2.43
2023-05-20T15:44:02.485Z,2.13
2023-05-20T15:46:32.495Z,2.20
2023-05-20T15:49:00.466Z,2.87
2023-05-20T15:51:28.310Z,2.30
2023-05-20T15:53:56.013Z,2.27
2023-05-20T15:56:24.056Z,3.00
2023-05-20T15:58:51.784Z,3.50
2023-05-20T16:01:19.526Z,3.20
2023-05-20T16:03:49.068Z,3.10
2023-05-20T16:06:18.738Z,2.60
2023-05-20T16:08:46.611Z,2.10
2023-05-20T16:11:14.647Z,2.83
2023-05-20T16:13:42.938Z,2.70
2023-05-20T16:16:14.379Z,2.27
2023-05-20T16:18:42.269Z,2.53
2023-05-20T16:21:11.378Z,2.10
2023-05-20T16:23:39.477Z,2.40
2023-05-20T16:26:07.584Z,2.53
2023-05-20T16:28:35.871Z,2.50
2023-05-20T16:31:03.586Z,2.70
2023-05-20T16:33:31.701Z,2.87
2023-05-20T16:35:59.522Z,2.30
2023-05-20T16:38:28.824Z,2.27
2023-05-20T16:40:56.923Z,2.97
2023-05-20T16:43:24.931Z,2.30
2023-05-20T16:45:52.818Z,3.10
2023-05-20T16:48:20.915Z,2.20
2023-05-20T16:50:48.693Z,2.27
2023-05-20T16:53:16.773Z,2.13
2023-05-20T16:55:46.007Z,2.80
2023-05-20T16:58:14.217Z,2.87
2023-05-20T17:00:42.867Z,3.00
2023-05-20T17:03:11.210Z,3.20
2023-05-20T17:05:39.028Z,3.50
2023-05-20T17:08:06.906Z,2.73
2023-05-20T17:10:35.120Z,2.70
2023-05-20T17:13:04.995Z,2.70
2023-05-20T17:15:36.941Z,3.37
2023-05-20T17:18:04.841Z,3.50
2023-05-20T17:20:33.236Z,3.47
2023-05-20T17:23:01.527Z,3.17
2023-05-20T17:25:29.406Z,3.40
2023-05-20T17:27:57.090Z,2.70
2023-05-20T17:30:27.437Z,3.40
2023-05-20T17:32:56.366Z,3.20
2023-05-20T17:35:26.117Z,3.10
2023-05-20T17:37:55.410Z,3.87
2023-05-20T17:40:26.142Z,3.23
2023-05-20T17:42:54.046Z,2.90
2023-05-20T17:45:21.743Z,3.50
2023-05-20T17:47:51.003Z,3.33
2023-05-20T17:50:18.833Z,3.47
2023-05-20T17:52:46.684Z,4.50
2023-05-20T17:55:14.571Z,3.90
2023-05-20T17:57:42.462Z,3.40
2023-05-20T18:00:13.050Z,4.00
2023-05-20T18:02:47.231Z,4.40
2023-05-20T18:05:17.152Z,3.77
2023-05-20T18:07:44.906Z,3.17
2023-05-20T18:10:12.702Z,3.53
2023-05-20T18:12:40.693Z,3.67
2023-05-20T18:15:09.490Z,3.30
2023-05-20T18:17:40.071Z,3.53
2023-05-20T18:20:10.854Z,3.50
2023-05-20T18:22:45.172Z,4.10
2023-05-20T18:25:13.106Z,5.50
2023-05-20T18:27:41.207Z,4.10
2023-05-20T18:30:10.722Z,5.90
2023-05-20T18:32:39.037Z,4.27
2023-05-20T18:35:08.003Z,4.67
2023-05-20T18:37:36.282Z,3.60
2023-05-20T18:40:06.593Z,2.50
2023-05-20T18:42:34.481Z,5.40
2023-05-20T18:45:02.229Z,4.07
2023-05-20T18:47:30.214Z,3.77
2023-05-20T18:49:58.022Z,3.30
2023-05-20T18:52:25.660Z,4.10
2023-05-20T18:54:53.504Z,3.90
2023-05-20T18:57:23.646Z,2.90
2023-05-20T18:59:51.607Z,3.40
2023-05-20T19:02:19.671Z,3.07
2023-05-20T19:04:47.552Z,3.70
2023-05-20T19:07:15.515Z,3.97
2023-05-20T19:09:43.399Z,3.23
2023-05-20T19:12:11.277Z,4.00
2023-05-20T19:14:40.898Z,3.40
2023-05-20T19:17:08.677Z,3.13
2023-05-20T19:19:36.440Z,3.10
2023-05-20T19:22:04.358Z,3.43
2023-05-20T19:24:32.330Z,3.10
2023-05-20T19:27:00.204Z,3.80
2023-05-20T19:29:27.998Z,3.60
2023-05-20T19:31:58.069Z,4.23
2023-05-20T19:34:26.207Z,3.23
2023-05-20T19:36:57.025Z,3.03
2023-05-20T19:39:25.455Z,3.40
2023-05-20T19:41:54.134Z,3.90
2023-05-20T19:44:22.855Z,4.13
2023-05-20T19:46:51.214Z,2.77
2023-05-20T19:49:20.596Z,4.30
2023-05-20T19:51:48.416Z,4.20
2023-05-20T19:54:16.231Z,3.40
2023-05-20T19:56:44.266Z,3.17
2023-05-20T19:59:12.176Z,3.23
2023-05-20T20:01:40.066Z,3.57
2023-05-20T20:04:08.018Z,2.90
2023-05-20T20:06:37.218Z,3.20
2023-05-20T20:09:05.746Z,2.60
2023-05-20T20:11:33.543Z,2.57
2023-05-20T20:14:01.616Z,2.70
2023-05-20T20:16:30.572Z,3.17
2023-05-20T20:18:58.542Z,2.73
2023-05-20T20:21:26.890Z,3.30
2023-05-20T20:23:56.081Z,3.50
2023-05-20T20:26:25.758Z,2.97
2023-05-20T20:28:53.862Z,2.80
2023-05-20T20:31:21.867Z,2.90
2023-05-20T20:33:50.650Z,2.70
2023-05-20T20:36:18.616Z,3.60
2023-05-20T20:38:47.054Z,3.40
2023-05-20T20:41:16.858Z,3.43
2023-05-20T20:43:45.890Z,3.20
2023-05-20T20:46:15.031Z,3.20
2023-05-20T20:48:45.878Z,2.83
2023-05-20T20:51:14.706Z,2.77
2023-05-20T20:53:43.077Z,3.70
2023-05-20T20:56:11.010Z,3.37
2023-05-20T20:58:40.447Z,3.37
2023-05-20T21:01:09.993Z,3.60
2023-05-20T21:03:40.510Z,4.20
2023-05-20T21:06:08.866Z,3.93
2023-05-20T21:08:36.711Z,3.13
2023-05-20T21:11:04.570Z,3.53
2023-05-20T21:13:32.497Z,3.50
2023-05-20T21:16:01.819Z,2.80
2023-05-20T21:18:29.931Z,2.73
2023-05-20T21:20:57.837Z,3.43
2023-05-20T21:23:25.684Z,3.90
2023-05-20T21:25:53.516Z,3.27
2023-05-20T21:28:21.482Z,3.53
2023-05-20T21:30:49.207Z,3.30
2023-05-20T21:33:18.703Z,4.97
2023-05-20T21:35:46.591Z,3.17
2023-05-20T21:38:14.437Z,3.80
2023-05-20T21:40:42.291Z,3.07
2023-05-20T21:43:10.366Z,3.63
2023-05-20T21:45:38.479Z,3.23
2023-05-20T21:48:07.274Z,2.93
2023-05-20T21:50:36.565Z,3.47
2023-05-20T21:53:04.768Z,3.17
2023-05-20T21:55:32.559Z,2.77
2023-05-20T21:58:00.786Z,2.73
2023-05-20T22:00:28.521Z,4.00
2023-05-20T22:02:56.420Z,3.33
2023-05-20T22:05:24.332Z,2.90
2023-05-20T22:07:54.937Z,2.83
2023-05-20T22:10:23.536Z,3.00
2023-05-20T22:12:51.900Z,3.63
2023-05-20T22:15:20.077Z,3.30
2023-05-20T22:17:47.806Z,3.20
2023-05-20T22:20:15.730Z,4.27
2023-05-20T22:22:44.704Z,4.03
2023-05-20T22:25:14.608Z,4.03
2023-05-20T22:27:43.351Z,2.77
2023-05-20T22:30:12.311Z,3.60
2023-05-20T22:32:43.884Z,3.20
2023-05-20T22:35:13.401Z,3.57
2023-05-20T22:37:41.805Z,3.17
2023-05-20T22:40:11.277Z,3.73
2023-05-20T22:42:40.855Z,2.90
2023-05-20T22:45:10.382Z,3.10
2023-05-20T22:47:38.420Z,2.80
2023-05-20T22:50:10.223Z,3.53
2023-05-20T22:52:40.217Z,3.03
2023-05-20T22:55:11.269Z,3.20
2023-05-20T22:57:40.844Z,2.70
2023-05-20T23:00:10.991Z,2.57
2023-05-20T23:02:41.650Z,3.00
2023-05-20T23:05:11.221Z,3.30
2023-05-20T23:07:39.527Z,3.27
2023-05-20T23:10:08.166Z,4.00
2023-05-20T23:12:36.071Z,3.33
2023-05-20T23:15:05.565Z,2.80
2023-05-20T23:17:33.558Z,3.43
2023-05-20T23:20:01.695Z,3.20
2023-05-20T23:22:30.350Z,3.93
2023-05-20T23:24:58.496Z,3.20
2023-05-20T23:27:26.318Z,3.20
2023-05-20T23:29:54.194Z,2.57
2023-05-20T23:32:23.276Z,3.00
2023-05-20T23:34:52.523Z,3.77
2023-05-20T23:37:21.130Z,2.90
2023-05-20T23:39:51.410Z,2.77
2023-05-20T23:42:19.253Z,2.87
2023-05-20T23:44:47.066Z,3.00
2023-05-20T23:47:15.401Z,3.10
2023-05-20T23:49:47.794Z,3.17
2023-05-20T23:52:17.041Z,3.20
2023-05-20T23:54:45.393Z,3.00
2023-05-20T23:57:13.530Z,2.87
2023-05-20T23:59:41.684Z,2.80
